Impacts TAF Board
For situational awareness. Not to be used for flight planning purposes.
IDs:

KCLE - Cleveland/Hopkins In, OH, US

Issued at 1136 UTC 13 Dec 2018
Updated at 1321 UTC 13 Dec 2018
Potential Impact None Slight Moderate High
Time<<14/02Z 14/03Z 14/04Z 14/05Z 14/06Z 14/07Z 14/08Z 14/09Z 14/10Z 14/11Z 14/12Z 14/13Z 14/14Z>>
Type PRVL PRVL PRVL PRVL PRVL PRVL PRVL PRVL PRVL PRVL PRVL PRVL PRVL
VIS >6 >6 >6 >6 >6 >6 >6 >6 >6 >6 >6 >6 >6
CIG 200 200 200 70 70 70 70 70 70 70 70 70 70
Cover BKN BKN BKN BKN BKN BKN BKN BKN BKN BKN BKN BKN BKN
FltCat VFR VFR VFR VFR VFR VFR VFR VFR VFR VFR VFR VFR VFR
WX -- -- -- -- -- -- -- -- -- -- -- -- --
WDir 170 170 170 140 140 140 140 140 140 140 140 140 140
WSpd 5 5 5 8 8 8 8 8 8 8 8 8 8
WGst -- -- -- -- -- -- -- -- -- -- -- -- --
Raw TAF
KCLE 131136Z 1312/1418 23005KT P6SM BKN040
  FM131600 21005KT P6SM SCT080
  FM131900 17005KT P6SM BKN200
  FM140500 14008KT P6SM BKN070


METAR Board
Radar Display
Forecast Discussion
For situational awareness. Not to be used for flight planning purposes.